createdAt,value
2022-07-31T00:01:21.189Z,26.88
2022-07-31T00:03:48.022Z,26.81
2022-07-31T00:06:14.643Z,26.78
2022-07-31T00:08:41.188Z,26.70
2022-07-31T00:11:07.731Z,26.61
2022-07-31T00:13:57.363Z,26.55
2022-07-31T00:16:20.924Z,26.48
2022-07-31T00:18:47.486Z,26.37
2022-07-31T00:21:14.081Z,26.29
2022-07-31T00:23:41.110Z,26.25
2022-07-31T00:26:07.942Z,26.18
2022-07-31T00:28:34.604Z,26.13
2022-07-31T00:31:01.270Z,26.01
2022-07-31T00:33:27.955Z,25.99
2022-07-31T00:35:54.513Z,25.94
2022-07-31T00:38:28.324Z,25.91
2022-07-31T00:40:55.252Z,25.85
2022-07-31T00:43:21.804Z,25.83
2022-07-31T00:45:56.331Z,25.82
2022-07-31T00:48:27.597Z,25.80
2022-07-31T00:50:55.192Z,25.80
2022-07-31T00:53:21.766Z,25.80
2022-07-31T00:55:52.032Z,25.77
2022-07-31T00:58:20.173Z,25.75
2022-07-31T01:00:47.241Z,25.74
2022-07-31T01:03:14.425Z,25.64
2022-07-31T01:05:41.791Z,25.63
2022-07-31T01:08:08.606Z,25.62
2022-07-31T01:10:48.335Z,25.64
2022-07-31T01:13:24.384Z,25.56
2022-07-31T01:15:52.361Z,25.54
2022-07-31T01:18:19.084Z,25.48
2022-07-31T01:20:49.570Z,25.41
2022-07-31T01:23:22.677Z,25.37
2022-07-31T01:26:16.658Z,25.33
2022-07-31T01:29:25.470Z,25.25
2022-07-31T01:32:03.698Z,25.21
2022-07-31T01:34:40.038Z,25.18
2022-07-31T01:37:24.105Z,25.14
2022-07-31T01:39:56.156Z,25.12
2022-07-31T01:42:25.718Z,25.07
2022-07-31T01:44:56.375Z,25.04
2022-07-31T01:47:27.690Z,24.99
2022-07-31T01:49:56.074Z,24.96
2022-07-31T01:52:27.228Z,24.85
2022-07-31T01:54:55.545Z,24.89
2022-07-31T01:57:24.626Z,24.91
2022-07-31T01:59:56.327Z,24.92
2022-07-31T02:02:50.606Z,24.94
2022-07-31T02:05:22.328Z,24.87
2022-07-31T02:07:50.311Z,24.84
2022-07-31T02:10:19.633Z,24.81
2022-07-31T02:12:49.404Z,24.78
2022-07-31T02:15:17.591Z,24.77
2022-07-31T02:17:47.190Z,24.72
2022-07-31T02:20:24.899Z,24.66
2022-07-31T02:22:55.766Z,24.65
2022-07-31T02:25:22.665Z,24.57
2022-07-31T02:27:53.562Z,24.54
2022-07-31T02:30:27.660Z,24.51
2022-07-31T02:33:11.563Z,24.49
2022-07-31T02:35:44.160Z,24.45
2022-07-31T02:38:21.681Z,24.41
2022-07-31T02:40:53.215Z,24.42
2022-07-31T02:43:20.409Z,24.41
2022-07-31T02:45:47.478Z,24.29
2022-07-31T02:48:14.376Z,24.25
2022-07-31T02:50:46.421Z,24.19
2022-07-31T02:53:13.300Z,24.16
2022-07-31T02:55:40.316Z,24.11
2022-07-31T02:58:06.906Z,24.04
2022-07-31T03:00:33.963Z,23.91
2022-07-31T03:03:00.736Z,23.89
2022-07-31T03:05:27.500Z,23.84
2022-07-31T03:07:54.129Z,23.76
2022-07-31T03:10:20.744Z,23.72
2022-07-31T03:13:03.871Z,23.75
2022-07-31T03:15:31.940Z,23.66
2022-07-31T03:17:59.127Z,23.64
2022-07-31T03:20:34.602Z,23.57
2022-07-31T03:23:02.546Z,23.56
2022-07-31T03:25:33.068Z,23.60
2022-07-31T03:28:00.184Z,23.58
2022-07-31T03:30:27.369Z,23.55
2022-07-31T03:32:57.333Z,23.51
2022-07-31T03:35:25.315Z,23.47
2022-07-31T03:37:52.173Z,23.47
2022-07-31T03:40:18.985Z,23.45
2022-07-31T03:42:47.580Z,23.48
2022-07-31T03:45:15.804Z,23.51
2022-07-31T03:47:42.797Z,23.55
2022-07-31T03:50:10.950Z,23.63
2022-07-31T03:52:38.324Z,23.58
2022-07-31T03:55:05.844Z,23.50
2022-07-31T03:57:34.219Z,23.44
2022-07-31T04:00:03.049Z,23.45
2022-07-31T04:02:32.607Z,23.41
2022-07-31T04:05:09.797Z,23.37
2022-07-31T04:07:38.084Z,23.38
2022-07-31T04:10:04.994Z,23.40
2022-07-31T04:12:31.590Z,23.39
2022-07-31T04:14:58.392Z,23.37
2022-07-31T04:17:25.889Z,23.37
2022-07-31T04:19:52.455Z,23.37
2022-07-31T04:22:19.107Z,23.38
2022-07-31T04:24:45.912Z,23.39
2022-07-31T04:27:47.974Z,23.41
2022-07-31T04:30:15.262Z,23.41
2022-07-31T04:32:42.083Z,23.47
2022-07-31T04:35:10.831Z,23.41
2022-07-31T04:37:37.831Z,23.46
2022-07-31T04:40:10.940Z,23.47
2022-07-31T04:42:37.583Z,23.52
2022-07-31T04:45:04.513Z,23.58
2022-07-31T04:47:31.115Z,23.56
2022-07-31T04:49:58.233Z,23.55
2022-07-31T04:52:26.585Z,23.52
2022-07-31T04:54:56.097Z,23.55
2022-07-31T04:57:22.804Z,23.53
2022-07-31T04:59:59.265Z,23.52
2022-07-31T05:02:30.258Z,23.55
2022-07-31T05:04:57.610Z,23.59
2022-07-31T05:07:30.272Z,23.65
2022-07-31T05:09:58.617Z,23.63
2022-07-31T05:12:26.078Z,23.56
2022-07-31T05:14:53.408Z,23.46
2022-07-31T05:17:20.353Z,23.49
2022-07-31T05:19:59.346Z,23.60
2022-07-31T05:22:46.150Z,23.66
2022-07-31T05:25:33.026Z,23.73
2022-07-31T05:27:59.571Z,23.81
2022-07-31T05:30:30.610Z,23.77
2022-07-31T05:32:58.451Z,23.89
2022-07-31T05:35:25.583Z,24.01
2022-07-31T05:37:52.146Z,24.05
2022-07-31T05:40:23.597Z,24.22
2022-07-31T05:43:08.656Z,24.37
2022-07-31T05:46:02.033Z,24.64
2022-07-31T05:48:28.775Z,24.69
2022-07-31T05:50:55.423Z,25.03
2022-07-31T05:53:22.418Z,25.36
2022-07-31T05:56:07.539Z,26.05
2022-07-31T05:58:49.377Z,26.66
2022-07-31T06:01:16.437Z,26.96
2022-07-31T06:03:52.496Z,27.24
2022-07-31T06:06:41.243Z,27.24
2022-07-31T06:09:08.011Z,27.26
2022-07-31T06:11:37.541Z,27.24
2022-07-31T06:14:04.138Z,27.21
2022-07-31T06:16:50.143Z,27.60
2022-07-31T06:19:17.153Z,28.16
2022-07-31T06:21:43.700Z,28.63
2022-07-31T06:24:10.803Z,29.19
2022-07-31T06:26:42.965Z,29.88
2022-07-31T06:29:09.656Z,30.35
2022-07-31T06:31:36.390Z,30.23
2022-07-31T06:34:03.310Z,30.20
2022-07-31T06:36:37.635Z,30.09
2022-07-31T06:39:07.164Z,29.90
2022-07-31T06:41:53.760Z,29.97
2022-07-31T06:44:30.316Z,30.03
2022-07-31T06:47:16.486Z,30.42
2022-07-31T06:50:21.254Z,30.32
2022-07-31T06:53:03.419Z,30.30
2022-07-31T06:55:31.308Z,30.28
2022-07-31T06:57:57.946Z,30.29
2022-07-31T07:00:24.549Z,30.35
2022-07-31T07:02:51.436Z,30.36
2022-07-31T07:05:18.158Z,30.53
2022-07-31T07:07:48.796Z,30.52
2022-07-31T07:10:15.584Z,30.59
2022-07-31T07:13:02.432Z,30.83
2022-07-31T07:15:33.009Z,30.87
2022-07-31T07:17:59.636Z,31.07
2022-07-31T07:20:34.941Z,31.05
2022-07-31T07:23:01.635Z,30.91
2022-07-31T07:25:38.174Z,30.43
2022-07-31T07:28:10.962Z,30.16
2022-07-31T07:30:40.112Z,29.94
2022-07-31T07:33:07.016Z,30.11
2022-07-31T07:35:34.204Z,30.06
2022-07-31T07:38:06.063Z,30.31
2022-07-31T07:40:36.973Z,30.40
2022-07-31T07:43:03.700Z,30.36
2022-07-31T07:45:31.162Z,30.60
2022-07-31T07:48:06.530Z,30.73
2022-07-31T07:50:56.908Z,30.66
2022-07-31T07:53:44.677Z,30.87
2022-07-31T07:56:14.328Z,31.01
2022-07-31T07:58:58.920Z,31.06
2022-07-31T08:01:57.218Z,31.25
2022-07-31T08:04:27.413Z,31.62
2022-07-31T08:06:53.990Z,32.09
2022-07-31T08:09:24.329Z,31.87
2022-07-31T08:12:09.720Z,31.93
2022-07-31T08:14:54.952Z,31.77
2022-07-31T08:17:50.741Z,31.63
2022-07-31T08:20:17.358Z,31.62
2022-07-31T08:22:43.971Z,31.56
2022-07-31T08:25:14.325Z,31.60
2022-07-31T08:27:44.381Z,31.61
2022-07-31T08:30:15.606Z,32.30
2022-07-31T08:32:42.508Z,33.19
2022-07-31T08:35:15.683Z,34.05
2022-07-31T08:38:02.422Z,34.75
2022-07-31T08:40:30.797Z,34.69
2022-07-31T08:43:01.001Z,35.70
2022-07-31T08:45:28.654Z,36.41
2022-07-31T08:48:16.301Z,36.60
2022-07-31T08:50:52.071Z,37.22
2022-07-31T08:53:48.581Z,37.86
2022-07-31T08:56:18.992Z,38.01
2022-07-31T08:58:45.631Z,38.64
2022-07-31T09:01:13.213Z,39.88
2022-07-31T09:03:40.176Z,40.50
2022-07-31T09:06:10.841Z,41.06
2022-07-31T09:08:38.043Z,40.99
2022-07-31T09:11:13.233Z,40.34
2022-07-31T09:14:02.861Z,41.15
2022-07-31T09:16:51.600Z,41.88
2022-07-31T09:19:52.786Z,42.80
2022-07-31T09:22:28.245Z,43.73
2022-07-31T09:25:12.828Z,43.93
2022-07-31T09:27:40.184Z,44.63
2022-07-31T09:30:08.718Z,43.04
2022-07-31T09:32:54.000Z,43.06
2022-07-31T09:35:50.354Z,42.20
2022-07-31T09:38:18.445Z,41.61
2022-07-31T09:41:56.546Z,42.64
2022-07-31T09:44:14.066Z,41.91
2022-07-31T09:46:40.683Z,43.00
2022-07-31T09:49:08.239Z,44.57
2022-07-31T09:51:44.823Z,45.31
2022-07-31T09:54:24.394Z,45.82
2022-07-31T09:57:13.417Z,46.83
2022-07-31T09:59:43.943Z,47.22
2022-07-31T10:02:15.521Z,48.12
2022-07-31T10:04:46.921Z,47.70
2022-07-31T10:07:32.348Z,47.27
2022-07-31T10:10:08.145Z,48.00
2022-07-31T10:13:01.986Z,49.40
2022-07-31T10:15:29.991Z,49.39
2022-07-31T10:18:44.079Z,50.52
2022-07-31T10:21:52.044Z,50.89
2022-07-31T10:24:28.145Z,48.50
2022-07-31T10:27:01.727Z,46.84
2022-07-31T10:29:39.565Z,46.52
2022-07-31T10:32:08.629Z,46.86
2022-07-31T10:34:40.406Z,48.41
2022-07-31T10:37:45.316Z,48.45
2022-07-31T10:40:36.697Z,49.91
2022-07-31T10:43:10.083Z,47.73
2022-07-31T10:45:53.956Z,46.44
2022-07-31T10:48:50.626Z,48.70
2022-07-31T10:51:48.134Z,48.65
2022-07-31T10:54:47.698Z,49.93
2022-07-31T10:57:34.919Z,48.60
2022-07-31T11:00:34.707Z,47.18
2022-07-31T11:03:14.856Z,49.10
2022-07-31T11:06:03.154Z,50.87
2022-07-31T11:08:54.094Z,51.62
2022-07-31T11:11:39.140Z,50.99
2022-07-31T11:14:33.833Z,48.65
2022-07-31T11:18:17.359Z,47.82
2022-07-31T11:20:32.017Z,49.19
2022-07-31T11:22:58.785Z,48.43
2022-07-31T11:25:29.391Z,49.10
2022-07-31T11:28:10.989Z,49.47
2022-07-31T11:31:00.664Z,49.81
2022-07-31T11:33:39.538Z,49.51
2022-07-31T11:36:17.691Z,50.00
2022-07-31T11:38:49.639Z,51.50
2022-07-31T11:41:17.074Z,49.71
2022-07-31T11:43:51.249Z,50.39
2022-07-31T11:46:28.782Z,49.71
2022-07-31T11:48:57.091Z,50.31
2022-07-31T11:51:25.030Z,51.37
2022-07-31T11:53:57.041Z,50.39
2022-07-31T11:56:26.828Z,49.95
2022-07-31T11:58:58.012Z,49.81
2022-07-31T12:01:27.668Z,50.36
2022-07-31T12:03:55.811Z,51.10
2022-07-31T12:06:22.435Z,50.38
2022-07-31T12:08:50.516Z,48.67
2022-07-31T12:11:19.115Z,48.21
2022-07-31T12:13:47.503Z,46.89
2022-07-31T12:16:14.701Z,46.67
2022-07-31T12:18:47.285Z,47.06
2022-07-31T12:21:14.423Z,47.00
2022-07-31T12:23:48.686Z,45.95
2022-07-31T12:26:30.260Z,45.22
2022-07-31T12:28:58.802Z,44.50
2022-07-31T12:31:25.750Z,43.99
2022-07-31T12:33:52.582Z,43.06
2022-07-31T12:36:19.466Z,42.60
2022-07-31T12:38:48.884Z,42.64
2022-07-31T12:41:16.164Z,42.75
2022-07-31T12:43:43.859Z,42.28
2022-07-31T12:46:33.682Z,41.61
2022-07-31T12:49:00.566Z,41.61
2022-07-31T12:51:45.309Z,40.92
2022-07-31T12:54:15.700Z,40.64
2022-07-31T12:56:43.756Z,40.13
2022-07-31T12:59:12.097Z,40.07
2022-07-31T13:01:38.988Z,39.99
2022-07-31T13:04:07.817Z,39.97
2022-07-31T13:06:36.030Z,39.74
2022-07-31T13:09:02.722Z,39.76
2022-07-31T13:11:45.534Z,39.35
2022-07-31T13:14:13.943Z,39.16
2022-07-31T13:16:40.514Z,39.20
2022-07-31T13:19:07.959Z,39.45
2022-07-31T13:21:40.571Z,39.18
2022-07-31T13:24:17.690Z,39.30
2022-07-31T13:26:45.349Z,39.10
2022-07-31T13:29:12.544Z,39.12
2022-07-31T13:31:39.403Z,39.04
2022-07-31T13:34:06.520Z,39.03
2022-07-31T13:36:36.194Z,38.84
2022-07-31T13:39:09.851Z,38.70
2022-07-31T13:41:37.058Z,38.68
2022-07-31T13:44:06.584Z,38.65
2022-07-31T13:46:33.308Z,38.75
2022-07-31T13:49:02.202Z,38.58
2022-07-31T13:51:29.861Z,38.49
2022-07-31T13:53:56.854Z,38.11
2022-07-31T13:56:39.423Z,38.29
2022-07-31T13:59:13.667Z,38.13
2022-07-31T14:02:03.121Z,38.28
2022-07-31T14:04:32.183Z,38.34
2022-07-31T14:07:03.411Z,38.31
2022-07-31T14:09:31.220Z,38.29
2022-07-31T14:11:57.726Z,37.96
2022-07-31T14:14:24.315Z,37.84
2022-07-31T14:16:50.975Z,37.65
2022-07-31T14:19:17.693Z,37.85
2022-07-31T14:21:50.051Z,37.57
2022-07-31T14:24:23.237Z,37.58
2022-07-31T14:26:49.826Z,37.70
2022-07-31T14:29:16.337Z,37.27
2022-07-31T14:31:42.873Z,37.35
2022-07-31T14:34:09.438Z,37.45
2022-07-31T14:36:36.617Z,37.30
2022-07-31T14:39:03.891Z,37.11
2022-07-31T14:41:30.479Z,37.13
2022-07-31T14:43:57.019Z,37.17
2022-07-31T14:46:23.687Z,37.07
2022-07-31T14:48:50.586Z,37.05
2022-07-31T14:51:18.856Z,36.96
2022-07-31T14:53:46.829Z,37.05
2022-07-31T14:56:13.660Z,37.16
2022-07-31T14:58:57.811Z,36.95
2022-07-31T15:01:26.837Z,36.76
2022-07-31T15:03:57.440Z,36.70
2022-07-31T15:06:43.844Z,36.59
2022-07-31T15:09:10.582Z,36.62
2022-07-31T15:11:59.609Z,36.92
2022-07-31T15:14:23.973Z,36.91
2022-07-31T15:16:50.733Z,36.75
2022-07-31T15:19:17.308Z,36.72
2022-07-31T15:22:10.902Z,36.41
2022-07-31T15:24:33.305Z,36.54
2022-07-31T15:26:59.905Z,36.49
2022-07-31T15:30:04.562Z,36.28
2022-07-31T15:32:13.552Z,36.25
2022-07-31T15:34:40.171Z,36.11
2022-07-31T15:37:07.227Z,35.86
2022-07-31T15:39:34.130Z,36.02
2022-07-31T15:42:01.613Z,36.28
2022-07-31T15:44:28.242Z,36.22
2022-07-31T15:46:54.969Z,36.11
2022-07-31T15:49:21.624Z,36.05
2022-07-31T15:51:48.326Z,35.74
2022-07-31T15:54:15.225Z,35.76
2022-07-31T15:56:41.804Z,35.79
2022-07-31T15:59:08.365Z,35.68
2022-07-31T16:01:35.010Z,35.31
2022-07-31T16:04:01.647Z,35.46
2022-07-31T16:06:32.226Z,35.63
2022-07-31T16:08:59.509Z,35.31
2022-07-31T16:12:05.377Z,35.35
2022-07-31T16:14:12.642Z,35.01
2022-07-31T16:16:43.001Z,34.70
2022-07-31T16:19:12.173Z,35.02
2022-07-31T16:21:41.785Z,35.05
2022-07-31T16:24:08.350Z,35.09
2022-07-31T16:26:37.551Z,35.07
2022-07-31T16:29:04.242Z,34.80
2022-07-31T16:31:30.984Z,34.99
2022-07-31T16:33:57.748Z,34.60
2022-07-31T16:36:24.817Z,34.55
2022-07-31T16:39:18.422Z,34.43
2022-07-31T16:41:38.862Z,34.19
2022-07-31T16:44:20.911Z,34.45
2022-07-31T16:46:51.392Z,34.40
2022-07-31T16:49:36.359Z,33.98
2022-07-31T16:52:05.457Z,33.85
2022-07-31T16:54:32.068Z,34.07
2022-07-31T16:56:58.618Z,33.91
2022-07-31T16:59:25.280Z,33.69
2022-07-31T17:01:56.757Z,33.74
2022-07-31T17:04:27.055Z,33.55
2022-07-31T17:06:53.824Z,33.76
2022-07-31T17:09:20.447Z,33.60
2022-07-31T17:11:52.190Z,33.46
2022-07-31T17:14:20.816Z,33.51
2022-07-31T17:16:49.455Z,33.48
2022-07-31T17:19:42.038Z,33.36
2022-07-31T17:22:07.231Z,33.26
2022-07-31T17:24:36.536Z,33.34
2022-07-31T17:27:05.467Z,33.22
2022-07-31T17:29:32.437Z,33.08
2022-07-31T17:31:58.996Z,32.97
2022-07-31T17:34:25.918Z,32.94
2022-07-31T17:36:53.298Z,32.88
2022-07-31T17:39:19.874Z,32.83
2022-07-31T17:41:46.443Z,32.83
2022-07-31T17:44:14.722Z,32.68
2022-07-31T17:46:48.280Z,32.74
2022-07-31T17:49:19.503Z,32.48
2022-07-31T17:51:59.457Z,32.42
2022-07-31T17:54:28.325Z,32.39
2022-07-31T17:56:54.925Z,32.37
2022-07-31T17:59:21.778Z,31.92
2022-07-31T18:01:51.931Z,32.15
2022-07-31T18:04:20.207Z,32.25
2022-07-31T18:06:49.350Z,32.24
2022-07-31T18:09:20.416Z,32.39
2022-07-31T18:11:47.079Z,32.33
2022-07-31T18:14:13.628Z,32.29
2022-07-31T18:16:41.249Z,32.10
2022-07-31T18:19:07.901Z,32.04
2022-07-31T18:21:34.608Z,32.00
2022-07-31T18:24:05.236Z,31.91
2022-07-31T18:26:32.153Z,31.93
2022-07-31T18:28:58.741Z,31.84
2022-07-31T18:31:34.072Z,31.77
2022-07-31T18:34:04.037Z,31.61
2022-07-31T18:36:31.702Z,31.51
2022-07-31T18:38:58.459Z,31.59
2022-07-31T18:41:25.023Z,31.46
2022-07-31T18:43:51.594Z,31.56
2022-07-31T18:46:19.882Z,31.48
2022-07-31T18:48:46.580Z,31.40
2022-07-31T18:51:13.253Z,31.31
2022-07-31T18:53:40.000Z,31.15
2022-07-31T18:56:06.546Z,31.21
2022-07-31T18:58:33.206Z,31.11
2022-07-31T19:00:59.926Z,31.09
2022-07-31T19:03:26.613Z,31.04
2022-07-31T19:05:53.643Z,30.92
2022-07-31T19:08:20.730Z,30.81
2022-07-31T19:10:49.349Z,30.66
2022-07-31T19:13:18.815Z,30.56
2022-07-31T19:15:47.360Z,30.48
2022-07-31T19:18:14.235Z,30.62
2022-07-31T19:21:00.116Z,30.46
2022-07-31T19:23:32.877Z,30.46
2022-07-31T19:26:03.869Z,30.37
2022-07-31T19:28:34.872Z,30.38
2022-07-31T19:31:01.592Z,30.34
2022-07-31T19:33:28.366Z,30.26
2022-07-31T19:36:00.960Z,30.27
2022-07-31T19:38:28.997Z,30.26
2022-07-31T19:40:55.697Z,30.18
2022-07-31T19:43:22.576Z,30.14
2022-07-31T19:46:02.566Z,30.12
2022-07-31T19:48:36.701Z,30.01
2022-07-31T19:51:04.045Z,29.97
2022-07-31T19:53:30.649Z,29.96
2022-07-31T19:55:57.413Z,29.97
2022-07-31T19:58:23.992Z,30.03
2022-07-31T20:00:50.595Z,29.95
2022-07-31T20:03:17.411Z,29.86
2022-07-31T20:05:44.020Z,29.88
2022-07-31T20:08:10.613Z,29.88
2022-07-31T20:10:37.258Z,29.93
2022-07-31T20:13:03.918Z,29.93
2022-07-31T20:15:50.895Z,29.86
2022-07-31T20:18:26.756Z,29.74
2022-07-31T20:21:06.848Z,29.71
2022-07-31T20:23:37.188Z,29.73
2022-07-31T20:26:08.769Z,29.68
2022-07-31T20:28:36.265Z,29.63
2022-07-31T20:31:03.547Z,29.51
2022-07-31T20:33:30.125Z,29.49
2022-07-31T20:35:56.716Z,29.42
2022-07-31T20:38:24.541Z,29.37
2022-07-31T20:40:55.327Z,29.25
2022-07-31T20:43:28.273Z,29.18
2022-07-31T20:45:59.588Z,29.14
2022-07-31T20:48:31.835Z,29.08
2022-07-31T20:51:03.300Z,29.14
2022-07-31T20:53:31.004Z,29.09
2022-07-31T20:55:58.323Z,28.99
2022-07-31T20:58:25.744Z,28.86
2022-07-31T21:00:53.630Z,28.79
2022-07-31T21:03:20.898Z,28.82
2022-07-31T21:05:48.001Z,28.66
2022-07-31T21:08:15.129Z,28.56
2022-07-31T21:10:41.775Z,28.54
2022-07-31T21:13:09.091Z,28.48
2022-07-31T21:15:42.340Z,28.47
2022-07-31T21:18:18.254Z,28.50
2022-07-31T21:20:51.198Z,28.48
2022-07-31T21:23:25.773Z,28.51
2022-07-31T21:25:54.064Z,28.51
2022-07-31T21:28:21.624Z,28.44
2022-07-31T21:30:48.841Z,28.40
2022-07-31T21:33:16.287Z,28.39
2022-07-31T21:35:43.148Z,28.35
2022-07-31T21:38:12.316Z,28.31
2022-07-31T21:40:40.004Z,28.26
2022-07-31T21:43:07.179Z,28.22
2022-07-31T21:45:49.704Z,28.19
2022-07-31T21:48:22.787Z,28.22
2022-07-31T21:50:49.627Z,28.17
2022-07-31T21:53:16.173Z,28.10
2022-07-31T21:55:42.859Z,28.04
2022-07-31T21:58:09.647Z,27.88
2022-07-31T22:00:36.824Z,27.98
2022-07-31T22:03:04.398Z,27.92
2022-07-31T22:05:50.237Z,27.88
2022-07-31T22:08:17.202Z,27.91
2022-07-31T22:10:44.311Z,27.93
2022-07-31T22:13:10.903Z,27.90
2022-07-31T22:15:50.355Z,27.92
2022-07-31T22:18:26.252Z,27.95
2022-07-31T22:20:53.949Z,27.93
2022-07-31T22:23:20.909Z,27.86
2022-07-31T22:25:48.978Z,27.76
2022-07-31T22:28:19.958Z,27.79
2022-07-31T22:30:47.178Z,27.74
2022-07-31T22:33:14.305Z,27.75
2022-07-31T22:35:41.109Z,27.70
2022-07-31T22:38:08.858Z,27.69
2022-07-31T22:40:35.622Z,27.68
2022-07-31T22:43:03.492Z,27.67
2022-07-31T22:45:30.557Z,27.64
2022-07-31T22:47:57.448Z,27.55
2022-07-31T22:50:24.681Z,27.55
2022-07-31T22:52:51.900Z,27.53
2022-07-31T22:55:18.527Z,27.53
2022-07-31T22:57:45.198Z,27.51
2022-07-31T23:00:13.888Z,27.54
2022-07-31T23:02:41.671Z,27.48
2022-07-31T23:05:09.121Z,27.45
2022-07-31T23:07:36.186Z,27.45
2022-07-31T23:10:03.077Z,27.40
2022-07-31T23:12:29.803Z,27.44
2022-07-31T23:14:56.436Z,27.42
2022-07-31T23:17:23.636Z,27.44
2022-07-31T23:19:53.669Z,27.45
2022-07-31T23:22:33.198Z,27.40
2022-07-31T23:25:02.227Z,27.30
2022-07-31T23:27:28.780Z,27.23
2022-07-31T23:29:55.341Z,27.25
2022-07-31T23:32:21.903Z,27.27
2022-07-31T23:34:48.422Z,27.19
2022-07-31T23:37:15.012Z,27.16
2022-07-31T23:39:41.711Z,27.14
2022-07-31T23:42:26.901Z,27.20
2022-07-31T23:44:53.629Z,27.14
2022-07-31T23:47:20.624Z,27.13
2022-07-31T23:49:47.751Z,27.10
2022-07-31T23:52:14.300Z,27.07
2022-07-31T23:54:41.031Z,26.99
2022-07-31T23:57:07.541Z,26.89
2022-07-31T23:59:34.132Z,26.77
